sensor_id;sensor_type;location;lat;lon;timestamp;temperature;humidity
30379;DHT22;17168;49.164;9.060;2023-04-19T00:00:07;12.40;73.30
30379;DHT22;17168;49.164;9.060;2023-04-19T00:02:40;12.40;73.50
30379;DHT22;17168;49.164;9.060;2023-04-19T00:05:13;12.40;73.60
30379;DHT22;17168;49.164;9.060;2023-04-19T00:07:46;12.40;73.70
30379;DHT22;17168;49.164;9.060;2023-04-19T00:10:18;12.30;73.70
30379;DHT22;17168;49.164;9.060;2023-04-19T00:12:50;12.30;73.90
30379;DHT22;17168;49.164;9.060;2023-04-19T00:15:25;12.20;74.00
30379;DHT22;17168;49.164;9.060;2023-04-19T00:17:57;12.20;74.10
30379;DHT22;17168;49.164;9.060;2023-04-19T00:20:29;12.20;74.20
30379;DHT22;17168;49.164;9.060;2023-04-19T00:23:02;12.20;74.30
30379;DHT22;17168;49.164;9.060;2023-04-19T00:25:34;12.20;74.40
30379;DHT22;17168;49.164;9.060;2023-04-19T00:28:06;12.10;74.50
30379;DHT22;17168;49.164;9.060;2023-04-19T00:30:41;12.10;74.70
30379;DHT22;17168;49.164;9.060;2023-04-19T00:33:14;12.10;74.90
30379;DHT22;17168;49.164;9.060;2023-04-19T00:35:46;12.10;74.90
30379;DHT22;17168;49.164;9.060;2023-04-19T00:38:18;12.10;75.00
30379;DHT22;17168;49.164;9.060;2023-04-19T00:40:50;12.00;75.10
30379;DHT22;17168;49.164;9.060;2023-04-19T00:43:22;12.00;75.20
30379;DHT22;17168;49.164;9.060;2023-04-19T00:45:57;12.00;75.40
30379;DHT22;17168;49.164;9.060;2023-04-19T00:48:29;11.90;75.50
30379;DHT22;17168;49.164;9.060;2023-04-19T00:51:02;11.90;75.60
30379;DHT22;17168;49.164;9.060;2023-04-19T00:53:35;11.90;75.70
30379;DHT22;17168;49.164;9.060;2023-04-19T00:56:07;11.90;75.80
30379;DHT22;17168;49.164;9.060;2023-04-19T00:58:40;11.90;75.90
30379;DHT22;17168;49.164;9.060;2023-04-19T01:01:15;11.90;75.90
30379;DHT22;17168;49.164;9.060;2023-04-19T01:03:47;12.00;76.00
30379;DHT22;17168;49.164;9.060;2023-04-19T01:06:20;11.90;75.90
30379;DHT22;17168;49.164;9.060;2023-04-19T01:08:52;11.90;76.00
30379;DHT22;17168;49.164;9.060;2023-04-19T01:11:25;12.00;76.10
30379;DHT22;17168;49.164;9.060;2023-04-19T01:13:57;11.90;76.10
30379;DHT22;17168;49.164;9.060;2023-04-19T01:16:32;11.90;76.10
30379;DHT22;17168;49.164;9.060;2023-04-19T01:19:04;11.90;76.20
30379;DHT22;17168;49.164;9.060;2023-04-19T01:21:36;11.90;76.20
30379;DHT22;17168;49.164;9.060;2023-04-19T01:24:12;11.90;76.30
30379;DHT22;17168;49.164;9.060;2023-04-19T01:26:45;11.90;76.50
30379;DHT22;17168;49.164;9.060;2023-04-19T01:29:17;11.90;76.50
30379;DHT22;17168;49.164;9.060;2023-04-19T01:31:49;11.90;76.50
30379;DHT22;17168;49.164;9.060;2023-04-19T01:34:24;11.90;76.60
30379;DHT22;17168;49.164;9.060;2023-04-19T01:36:56;11.90;76.70
30379;DHT22;17168;49.164;9.060;2023-04-19T01:39:32;11.80;76.70
30379;DHT22;17168;49.164;9.060;2023-04-19T01:42:04;11.90;76.90
30379;DHT22;17168;49.164;9.060;2023-04-19T01:44:36;11.80;76.80
30379;DHT22;17168;49.164;9.060;2023-04-19T01:47:08;11.90;76.90
30379;DHT22;17168;49.164;9.060;2023-04-19T01:49:41;11.90;76.90
30379;DHT22;17168;49.164;9.060;2023-04-19T01:52:13;11.80;76.90
30379;DHT22;17168;49.164;9.060;2023-04-19T01:54:47;11.80;77.00
30379;DHT22;17168;49.164;9.060;2023-04-19T01:57:19;11.80;77.00
30379;DHT22;17168;49.164;9.060;2023-04-19T01:59:52;11.90;77.10
30379;DHT22;17168;49.164;9.060;2023-04-19T02:02:25;11.90;77.10
30379;DHT22;17168;49.164;9.060;2023-04-19T02:04:57;11.90;77.10
30379;DHT22;17168;49.164;9.060;2023-04-19T02:07:29;11.90;77.20
30379;DHT22;17168;49.164;9.060;2023-04-19T02:10:05;11.90;77.20
30379;DHT22;17168;49.164;9.060;2023-04-19T02:12:40;11.90;77.20
30379;DHT22;17168;49.164;9.060;2023-04-19T02:15:13;11.90;77.30
30379;DHT22;17168;49.164;9.060;2023-04-19T02:17:45;11.90;77.30
30379;DHT22;17168;49.164;9.060;2023-04-19T02:20:18;11.90;77.30
30379;DHT22;17168;49.164;9.060;2023-04-19T02:22:50;11.90;77.30
30379;DHT22;17168;49.164;9.060;2023-04-19T02:25:24;11.90;77.40
30379;DHT22;17168;49.164;9.060;2023-04-19T02:27:57;11.90;77.40
30379;DHT22;17168;49.164;9.060;2023-04-19T02:30:29;11.90;77.40
30379;DHT22;17168;49.164;9.060;2023-04-19T02:33:01;11.90;77.50
30379;DHT22;17168;49.164;9.060;2023-04-19T02:35:33;11.90;77.50
30379;DHT22;17168;49.164;9.060;2023-04-19T02:38:05;11.90;77.60
30379;DHT22;17168;49.164;9.060;2023-04-19T02:40:40;11.80;77.60
30379;DHT22;17168;49.164;9.060;2023-04-19T02:43:12;11.80;77.60
30379;DHT22;17168;49.164;9.060;2023-04-19T02:45:44;11.80;77.70
30379;DHT22;17168;49.164;9.060;2023-04-19T02:48:16;11.80;77.70
30379;DHT22;17168;49.164;9.060;2023-04-19T02:50:49;11.80;77.70
30379;DHT22;17168;49.164;9.060;2023-04-19T02:53:21;11.80;77.80
30379;DHT22;17168;49.164;9.060;2023-04-19T02:55:56;11.80;77.80
30379;DHT22;17168;49.164;9.060;2023-04-19T02:58:28;11.70;77.90
30379;DHT22;17168;49.164;9.060;2023-04-19T03:01:00;11.70;77.90
30379;DHT22;17168;49.164;9.060;2023-04-19T03:03:32;11.70;78.00
30379;DHT22;17168;49.164;9.060;2023-04-19T03:06:05;11.70;78.00
30379;DHT22;17168;49.164;9.060;2023-04-19T03:08:37;11.70;78.10
30379;DHT22;17168;49.164;9.060;2023-04-19T03:11:13;11.60;78.10
30379;DHT22;17168;49.164;9.060;2023-04-19T03:13:45;11.70;78.20
30379;DHT22;17168;49.164;9.060;2023-04-19T03:16:17;11.60;78.10
30379;DHT22;17168;49.164;9.060;2023-04-19T03:18:50;11.60;78.20
30379;DHT22;17168;49.164;9.060;2023-04-19T03:21:22;11.60;78.20
30379;DHT22;17168;49.164;9.060;2023-04-19T03:23:58;11.60;78.20
30379;DHT22;17168;49.164;9.060;2023-04-19T03:26:32;11.50;78.20
30379;DHT22;17168;49.164;9.060;2023-04-19T03:29:04;11.50;78.30
30379;DHT22;17168;49.164;9.060;2023-04-19T03:31:36;11.50;78.30
30379;DHT22;17168;49.164;9.060;2023-04-19T03:34:09;11.50;78.30
30379;DHT22;17168;49.164;9.060;2023-04-19T03:36:41;11.50;78.40
30379;DHT22;17168;49.164;9.060;2023-04-19T03:39:13;11.40;78.40
30379;DHT22;17168;49.164;9.060;2023-04-19T03:41:48;11.50;78.50
30379;DHT22;17168;49.164;9.060;2023-04-19T03:44:20;11.40;78.50
30379;DHT22;17168;49.164;9.060;2023-04-19T03:46:52;11.40;78.60
30379;DHT22;17168;49.164;9.060;2023-04-19T03:49:24;11.40;78.50
30379;DHT22;17168;49.164;9.060;2023-04-19T03:51:56;11.30;78.50
30379;DHT22;17168;49.164;9.060;2023-04-19T03:54:28;11.30;78.50
30379;DHT22;17168;49.164;9.060;2023-04-19T03:57:03;11.30;78.50
30379;DHT22;17168;49.164;9.060;2023-04-19T03:59:36;11.20;78.50
30379;DHT22;17168;49.164;9.060;2023-04-19T04:02:08;11.20;78.40
30379;DHT22;17168;49.164;9.060;2023-04-19T04:04:41;11.20;78.40
30379;DHT22;17168;49.164;9.060;2023-04-19T04:07:14;11.10;78.40
30379;DHT22;17168;49.164;9.060;2023-04-19T04:09:46;11.10;78.50
30379;DHT22;17168;49.164;9.060;2023-04-19T04:12:21;11.10;78.50
30379;DHT22;17168;49.164;9.060;2023-04-19T04:14:53;11.10;78.60
30379;DHT22;17168;49.164;9.060;2023-04-19T04:17:26;11.00;78.60
30379;DHT22;17168;49.164;9.060;2023-04-19T04:19:58;11.00;78.70
30379;DHT22;17168;49.164;9.060;2023-04-19T04:22:30;11.00;78.70
30379;DHT22;17168;49.164;9.060;2023-04-19T04:25:04;11.00;78.80
30379;DHT22;17168;49.164;9.060;2023-04-19T04:27:39;10.90;78.90
30379;DHT22;17168;49.164;9.060;2023-04-19T04:30:12;11.00;79.00
30379;DHT22;17168;49.164;9.060;2023-04-19T04:32:44;10.90;79.00
30379;DHT22;17168;49.164;9.060;2023-04-19T04:35:18;10.90;79.10
30379;DHT22;17168;49.164;9.060;2023-04-19T04:37:50;10.90;79.10
30379;DHT22;17168;49.164;9.060;2023-04-19T04:40:22;10.90;79.20
30379;DHT22;17168;49.164;9.060;2023-04-19T04:42:56;10.90;79.30
30379;DHT22;17168;49.164;9.060;2023-04-19T04:45:31;10.90;79.30
30379;DHT22;17168;49.164;9.060;2023-04-19T04:48:06;10.80;79.30
30379;DHT22;17168;49.164;9.060;2023-04-19T04:50:42;10.80;79.40
30379;DHT22;17168;49.164;9.060;2023-04-19T04:53:15;10.80;79.50
30379;DHT22;17168;49.164;9.060;2023-04-19T04:55:47;10.80;79.60
30379;DHT22;17168;49.164;9.060;2023-04-19T04:58:22;10.80;79.60
30379;DHT22;17168;49.164;9.060;2023-04-19T05:00:54;10.80;79.70
30379;DHT22;17168;49.164;9.060;2023-04-19T05:03:26;10.80;80.30
30379;DHT22;17168;49.164;9.060;2023-04-19T05:05:58;10.80;79.80
30379;DHT22;17168;49.164;9.060;2023-04-19T05:08:30;10.70;79.80
30379;DHT22;17168;49.164;9.060;2023-04-19T05:11:03;10.80;79.90
30379;DHT22;17168;49.164;9.060;2023-04-19T05:13:37;10.70;79.80
30379;DHT22;17168;49.164;9.060;2023-04-19T05:16:10;10.80;80.00
30379;DHT22;17168;49.164;9.060;2023-04-19T05:18:42;10.70;79.90
30379;DHT22;17168;49.164;9.060;2023-04-19T05:21:14;10.70;80.00
30379;DHT22;17168;49.164;9.060;2023-04-19T05:23:46;10.70;80.00
30379;DHT22;17168;49.164;9.060;2023-04-19T05:26:19;10.70;80.00
30379;DHT22;17168;49.164;9.060;2023-04-19T05:28:53;10.70;80.10
30379;DHT22;17168;49.164;9.060;2023-04-19T05:31:25;10.70;80.20
30379;DHT22;17168;49.164;9.060;2023-04-19T05:33:58;10.70;80.20
30379;DHT22;17168;49.164;9.060;2023-04-19T05:36:30;10.70;80.30
30379;DHT22;17168;49.164;9.060;2023-04-19T05:39:03;10.70;80.30
30379;DHT22;17168;49.164;9.060;2023-04-19T05:41:35;10.70;80.40
30379;DHT22;17168;49.164;9.060;2023-04-19T05:44:10;10.60;80.50
30379;DHT22;17168;49.164;9.060;2023-04-19T05:46:42;10.60;80.60
30379;DHT22;17168;49.164;9.060;2023-04-19T05:49:14;10.60;80.70
30379;DHT22;17168;49.164;9.060;2023-04-19T05:51:46;10.70;80.80
30379;DHT22;17168;49.164;9.060;2023-04-19T05:54:18;10.60;80.90
30379;DHT22;17168;49.164;9.060;2023-04-19T05:56:50;10.60;81.00
30379;DHT22;17168;49.164;9.060;2023-04-19T05:59:25;10.70;81.10
30379;DHT22;17168;49.164;9.060;2023-04-19T06:01:57;10.70;81.30
30379;DHT22;17168;49.164;9.060;2023-04-19T06:04:30;10.70;81.30
30379;DHT22;17168;49.164;9.060;2023-04-19T06:07:02;10.70;81.80
30379;DHT22;17168;49.164;9.060;2023-04-19T06:09:39;10.70;81.50
30379;DHT22;17168;49.164;9.060;2023-04-19T06:12:11;10.70;81.70
30379;DHT22;17168;49.164;9.060;2023-04-19T06:14:45;10.70;81.80
30379;DHT22;17168;49.164;9.060;2023-04-19T06:17:17;10.80;82.00
30379;DHT22;17168;49.164;9.060;2023-04-19T06:19:55;10.80;82.10
30379;DHT22;17168;49.164;9.060;2023-04-19T06:22:27;10.80;82.20
30379;DHT22;17168;49.164;9.060;2023-04-19T06:25:00;10.80;82.30
30379;DHT22;17168;49.164;9.060;2023-04-19T06:27:33;10.80;82.50
30379;DHT22;17168;49.164;9.060;2023-04-19T06:30:08;10.90;82.60
30379;DHT22;17168;49.164;9.060;2023-04-19T06:32:40;10.90;82.90
30379;DHT22;17168;49.164;9.060;2023-04-19T06:35:13;10.90;83.00
30379;DHT22;17168;49.164;9.060;2023-04-19T06:37:45;10.90;83.20
30379;DHT22;17168;49.164;9.060;2023-04-19T06:40:18;11.00;83.40
30379;DHT22;17168;49.164;9.060;2023-04-19T06:42:50;11.00;83.60
30379;DHT22;17168;49.164;9.060;2023-04-19T06:45:25;11.10;83.80
30379;DHT22;17168;49.164;9.060;2023-04-19T06:47:57;11.10;83.90
30379;DHT22;17168;49.164;9.060;2023-04-19T06:50:29;11.10;84.00
30379;DHT22;17168;49.164;9.060;2023-04-19T06:53:02;11.20;84.20
30379;DHT22;17168;49.164;9.060;2023-04-19T06:55:35;11.20;84.30
30379;DHT22;17168;49.164;9.060;2023-04-19T06:58:07;11.20;84.40
30379;DHT22;17168;49.164;9.060;2023-04-19T07:00:44;11.30;84.60
30379;DHT22;17168;49.164;9.060;2023-04-19T07:03:16;11.30;84.70
30379;DHT22;17168;49.164;9.060;2023-04-19T07:05:48;11.30;84.80
30379;DHT22;17168;49.164;9.060;2023-04-19T07:08:21;11.40;84.90
30379;DHT22;17168;49.164;9.060;2023-04-19T07:10:53;11.40;85.10
30379;DHT22;17168;49.164;9.060;2023-04-19T07:13:29;11.50;85.30
30379;DHT22;17168;49.164;9.060;2023-04-19T07:16:06;11.50;85.50
30379;DHT22;17168;49.164;9.060;2023-04-19T07:18:38;11.50;85.70
30379;DHT22;17168;49.164;9.060;2023-04-19T07:21:12;11.60;85.90
30379;DHT22;17168;49.164;9.060;2023-04-19T07:23:44;11.60;86.10
30379;DHT22;17168;49.164;9.060;2023-04-19T07:26:16;11.70;86.30
30379;DHT22;17168;49.164;9.060;2023-04-19T07:28:48;11.70;86.50
30379;DHT22;17168;49.164;9.060;2023-04-19T07:31:24;11.80;86.80
30379;DHT22;17168;49.164;9.060;2023-04-19T07:33:56;11.90;87.00
30379;DHT22;17168;49.164;9.060;2023-04-19T07:36:28;12.00;87.10
30379;DHT22;17168;49.164;9.060;2023-04-19T07:39:01;12.00;87.10
30379;DHT22;17168;49.164;9.060;2023-04-19T07:41:33;12.10;87.10
30379;DHT22;17168;49.164;9.060;2023-04-19T07:44:07;12.10;87.10
30379;DHT22;17168;49.164;9.060;2023-04-19T07:46:42;12.10;87.20
30379;DHT22;17168;49.164;9.060;2023-04-19T07:49:15;12.20;87.30
30379;DHT22;17168;49.164;9.060;2023-04-19T07:51:47;12.20;87.30
30379;DHT22;17168;49.164;9.060;2023-04-19T07:54:20;12.30;87.40
30379;DHT22;17168;49.164;9.060;2023-04-19T07:56:52;12.30;87.40
30379;DHT22;17168;49.164;9.060;2023-04-19T07:59:24;12.40;87.50
30379;DHT22;17168;49.164;9.060;2023-04-19T08:01:59;12.40;87.50
30379;DHT22;17168;49.164;9.060;2023-04-19T08:04:31;12.50;87.50
30379;DHT22;17168;49.164;9.060;2023-04-19T08:07:04;12.60;87.40
30379;DHT22;17168;49.164;9.060;2023-04-19T08:09:36;12.60;87.40
30379;DHT22;17168;49.164;9.060;2023-04-19T08:12:08;12.70;87.40
30379;DHT22;17168;49.164;9.060;2023-04-19T08:14:50;12.80;87.40
30379;DHT22;17168;49.164;9.060;2023-04-19T08:17:44;12.80;87.20
30379;DHT22;17168;49.164;9.060;2023-04-19T08:20:16;12.90;87.10
30379;DHT22;17168;49.164;9.060;2023-04-19T08:22:48;13.00;87.00
30379;DHT22;17168;49.164;9.060;2023-04-19T08:25:20;13.00;86.70
30379;DHT22;17168;49.164;9.060;2023-04-19T08:27:57;13.00;86.50
30379;DHT22;17168;49.164;9.060;2023-04-19T08:30:30;13.00;86.30
30379;DHT22;17168;49.164;9.060;2023-04-19T08:33:05;13.10;86.30
30379;DHT22;17168;49.164;9.060;2023-04-19T08:35:37;13.10;86.10
30379;DHT22;17168;49.164;9.060;2023-04-19T08:38:11;13.10;86.00
30379;DHT22;17168;49.164;9.060;2023-04-19T08:40:45;13.20;86.00
30379;DHT22;17168;49.164;9.060;2023-04-19T08:43:18;13.20;86.00
30379;DHT22;17168;49.164;9.060;2023-04-19T08:45:51;13.20;85.90
30379;DHT22;17168;49.164;9.060;2023-04-19T08:48:28;13.30;86.00
30379;DHT22;17168;49.164;9.060;2023-04-19T08:51:01;13.40;86.10
30379;DHT22;17168;49.164;9.060;2023-04-19T08:53:36;13.40;86.10
30379;DHT22;17168;49.164;9.060;2023-04-19T08:56:09;13.50;86.10
30379;DHT22;17168;49.164;9.060;2023-04-19T08:59:02;13.60;86.50
30379;DHT22;17168;49.164;9.060;2023-04-19T09:01:49;13.60;85.90
30379;DHT22;17168;49.164;9.060;2023-04-19T09:04:24;13.70;85.80
30379;DHT22;17168;49.164;9.060;2023-04-19T09:07:08;13.70;85.70
30379;DHT22;17168;49.164;9.060;2023-04-19T09:09:40;13.80;85.70
30379;DHT22;17168;49.164;9.060;2023-04-19T09:12:33;13.90;85.80
30379;DHT22;17168;49.164;9.060;2023-04-19T09:15:07;13.90;85.70
30379;DHT22;17168;49.164;9.060;2023-04-19T09:17:40;14.10;85.60
30379;DHT22;17168;49.164;9.060;2023-04-19T09:20:14;14.10;85.30
30379;DHT22;17168;49.164;9.060;2023-04-19T09:23:02;14.20;85.10
30379;DHT22;17168;49.164;9.060;2023-04-19T09:25:35;14.20;85.00
30379;DHT22;17168;49.164;9.060;2023-04-19T09:28:28;14.20;84.90
30379;DHT22;17168;49.164;9.060;2023-04-19T09:31:10;14.30;84.80
30379;DHT22;17168;49.164;9.060;2023-04-19T09:34:14;14.40;84.50
30379;DHT22;17168;49.164;9.060;2023-04-19T09:36:49;14.40;84.40
30379;DHT22;17168;49.164;9.060;2023-04-19T09:39:39;14.50;84.30
30379;DHT22;17168;49.164;9.060;2023-04-19T09:42:11;14.50;84.00
30379;DHT22;17168;49.164;9.060;2023-04-19T09:44:55;14.50;83.80
30379;DHT22;17168;49.164;9.060;2023-04-19T09:48:00;14.50;83.60
30379;DHT22;17168;49.164;9.060;2023-04-19T09:50:33;14.50;83.40
30379;DHT22;17168;49.164;9.060;2023-04-19T09:53:28;14.50;83.30
30379;DHT22;17168;49.164;9.060;2023-04-19T09:56:01;14.50;83.20
30379;DHT22;17168;49.164;9.060;2023-04-19T09:58:35;14.50;83.00
30379;DHT22;17168;49.164;9.060;2023-04-19T10:01:22;14.50;82.90
30379;DHT22;17168;49.164;9.060;2023-04-19T10:03:56;14.50;82.70
30379;DHT22;17168;49.164;9.060;2023-04-19T10:06:45;14.60;82.70
30379;DHT22;17168;49.164;9.060;2023-04-19T10:09:25;14.60;82.50
30379;DHT22;17168;49.164;9.060;2023-04-19T10:11:58;14.50;82.40
30379;DHT22;17168;49.164;9.060;2023-04-19T10:14:53;14.50;82.30
30379;DHT22;17168;49.164;9.060;2023-04-19T10:17:26;14.50;82.20
30379;DHT22;17168;49.164;9.060;2023-04-19T10:20:03;14.50;82.10
30379;DHT22;17168;49.164;9.060;2023-04-19T10:22:39;14.50;82.50
30379;DHT22;17168;49.164;9.060;2023-04-19T10:25:15;14.50;82.40
30379;DHT22;17168;49.164;9.060;2023-04-19T10:27:47;14.60;81.90
30379;DHT22;17168;49.164;9.060;2023-04-19T10:30:23;14.50;81.80
30379;DHT22;17168;49.164;9.060;2023-04-19T10:32:56;14.50;81.80
30379;DHT22;17168;49.164;9.060;2023-04-19T10:35:34;14.60;81.80
30379;DHT22;17168;49.164;9.060;2023-04-19T10:38:09;14.50;82.10
30379;DHT22;17168;49.164;9.060;2023-04-19T10:41:01;14.50;81.70
30379;DHT22;17168;49.164;9.060;2023-04-19T10:43:37;14.50;81.60
30379;DHT22;17168;49.164;9.060;2023-04-19T10:46:14;14.50;81.60
30379;DHT22;17168;49.164;9.060;2023-04-19T10:48:51;14.40;81.60
30379;DHT22;17168;49.164;9.060;2023-04-19T10:51:26;14.40;81.60
30379;DHT22;17168;49.164;9.060;2023-04-19T10:53:59;14.40;81.60
30379;DHT22;17168;49.164;9.060;2023-04-19T11:00:17;14.40;82.10
30379;DHT22;17168;49.164;9.060;2023-04-19T11:02:50;14.40;81.70
30379;DHT22;17168;49.164;9.060;2023-04-19T11:05:22;14.40;81.60
30379;DHT22;17168;49.164;9.060;2023-04-19T11:07:54;14.30;81.60
30379;DHT22;17168;49.164;9.060;2023-04-19T11:10:29;14.30;81.60
30379;DHT22;17168;49.164;9.060;2023-04-19T11:13:02;14.30;81.70
30379;DHT22;17168;49.164;9.060;2023-04-19T11:15:41;14.30;81.70
30379;DHT22;17168;49.164;9.060;2023-04-19T11:18:17;14.20;81.50
30379;DHT22;17168;49.164;9.060;2023-04-19T11:20:52;14.10;81.30
30379;DHT22;17168;49.164;9.060;2023-04-19T11:23:25;14.10;81.20
30379;DHT22;17168;49.164;9.060;2023-04-19T11:25:58;14.00;81.00
30379;DHT22;17168;49.164;9.060;2023-04-19T11:28:32;14.00;81.00
30379;DHT22;17168;49.164;9.060;2023-04-19T11:31:07;14.00;81.00
30379;DHT22;17168;49.164;9.060;2023-04-19T11:33:39;14.00;80.90
30379;DHT22;17168;49.164;9.060;2023-04-19T11:36:11;13.90;80.80
30379;DHT22;17168;49.164;9.060;2023-04-19T11:38:46;13.90;80.60
30379;DHT22;17168;49.164;9.060;2023-04-19T11:41:18;13.90;80.40
30379;DHT22;17168;49.164;9.060;2023-04-19T11:43:51;13.80;80.20
30379;DHT22;17168;49.164;9.060;2023-04-19T11:46:25;13.80;80.10
30379;DHT22;17168;49.164;9.060;2023-04-19T11:48:58;13.70;80.00
30379;DHT22;17168;49.164;9.060;2023-04-19T11:51:30;13.70;80.00
30379;DHT22;17168;49.164;9.060;2023-04-19T11:54:11;13.70;79.90
30379;DHT22;17168;49.164;9.060;2023-04-19T11:56:58;13.70;79.80
30379;DHT22;17168;49.164;9.060;2023-04-19T11:59:31;13.70;79.90
30379;DHT22;17168;49.164;9.060;2023-04-19T12:02:11;13.70;79.80
30379;DHT22;17168;49.164;9.060;2023-04-19T12:04:43;13.70;79.70
30379;DHT22;17168;49.164;9.060;2023-04-19T12:07:16;13.70;79.60
30379;DHT22;17168;49.164;9.060;2023-04-19T12:09:48;13.70;79.50
30379;DHT22;17168;49.164;9.060;2023-04-19T12:12:35;13.70;79.40
30379;DHT22;17168;49.164;9.060;2023-04-19T12:15:08;13.70;79.30
30379;DHT22;17168;49.164;9.060;2023-04-19T12:18:00;13.70;79.30
30379;DHT22;17168;49.164;9.060;2023-04-19T12:20:34;13.70;79.10
30379;DHT22;17168;49.164;9.060;2023-04-19T12:23:07;13.80;79.20
30379;DHT22;17168;49.164;9.060;2023-04-19T12:25:43;13.90;79.20
30379;DHT22;17168;49.164;9.060;2023-04-19T12:28:15;13.90;79.10
30379;DHT22;17168;49.164;9.060;2023-04-19T12:30:48;13.90;79.00
30379;DHT22;17168;49.164;9.060;2023-04-19T12:33:22;14.00;79.10
30379;DHT22;17168;49.164;9.060;2023-04-19T12:35:55;14.20;79.00
30379;DHT22;17168;49.164;9.060;2023-04-19T12:38:27;14.30;79.00
30379;DHT22;17168;49.164;9.060;2023-04-19T12:40:59;14.40;78.80
30379;DHT22;17168;49.164;9.060;2023-04-19T12:43:32;14.40;78.60
30379;DHT22;17168;49.164;9.060;2023-04-19T12:46:04;14.50;78.50
30379;DHT22;17168;49.164;9.060;2023-04-19T12:48:39;14.50;78.80
30379;DHT22;17168;49.164;9.060;2023-04-19T12:51:11;14.60;78.20
30379;DHT22;17168;49.164;9.060;2023-04-19T12:53:46;14.60;78.00
30379;DHT22;17168;49.164;9.060;2023-04-19T12:56:19;14.60;77.80
30379;DHT22;17168;49.164;9.060;2023-04-19T12:58:51;14.70;77.70
30379;DHT22;17168;49.164;9.060;2023-04-19T13:01:23;14.70;77.50
30379;DHT22;17168;49.164;9.060;2023-04-19T13:03:58;14.70;77.40
30379;DHT22;17168;49.164;9.060;2023-04-19T13:06:31;14.70;77.30
30379;DHT22;17168;49.164;9.060;2023-04-19T13:09:03;14.80;77.30
30379;DHT22;17168;49.164;9.060;2023-04-19T13:11:45;14.80;77.10
30379;DHT22;17168;49.164;9.060;2023-04-19T13:14:17;14.80;76.90
30379;DHT22;17168;49.164;9.060;2023-04-19T13:16:49;14.80;76.60
30379;DHT22;17168;49.164;9.060;2023-04-19T13:19:24;14.80;76.50
30379;DHT22;17168;49.164;9.060;2023-04-19T13:21:57;14.80;76.50
30379;DHT22;17168;49.164;9.060;2023-04-19T13:24:29;14.80;76.50
30379;DHT22;17168;49.164;9.060;2023-04-19T13:27:02;14.90;76.70
30379;DHT22;17168;49.164;9.060;2023-04-19T13:29:36;15.10;76.80
30379;DHT22;17168;49.164;9.060;2023-04-19T13:32:08;15.40;77.20
30379;DHT22;17168;49.164;9.060;2023-04-19T13:34:45;15.90;77.80
30379;DHT22;17168;49.164;9.060;2023-04-19T13:37:18;16.50;78.00
30379;DHT22;17168;49.164;9.060;2023-04-19T13:39:50;17.00;78.40
30379;DHT22;17168;49.164;9.060;2023-04-19T13:42:22;17.60;77.60
30379;DHT22;17168;49.164;9.060;2023-04-19T13:44:54;17.90;76.80
30379;DHT22;17168;49.164;9.060;2023-04-19T13:47:27;18.40;76.40
30379;DHT22;17168;49.164;9.060;2023-04-19T13:50:01;18.80;76.00
30379;DHT22;17168;49.164;9.060;2023-04-19T13:52:34;19.30;75.10
30379;DHT22;17168;49.164;9.060;2023-04-19T13:55:06;19.90;74.50
30379;DHT22;17168;49.164;9.060;2023-04-19T13:57:38;20.20;73.40
30379;DHT22;17168;49.164;9.060;2023-04-19T14:00:11;20.60;72.00
30379;DHT22;17168;49.164;9.060;2023-04-19T14:02:44;20.80;71.40
30379;DHT22;17168;49.164;9.060;2023-04-19T14:05:19;20.80;70.10
30379;DHT22;17168;49.164;9.060;2023-04-19T14:07:51;20.70;69.20
30379;DHT22;17168;49.164;9.060;2023-04-19T14:10:23;20.50;68.70
30379;DHT22;17168;49.164;9.060;2023-04-19T14:12:56;20.30;68.30
30379;DHT22;17168;49.164;9.060;2023-04-19T14:15:28;20.10;67.90
30379;DHT22;17168;49.164;9.060;2023-04-19T14:18:01;20.00;67.30
30379;DHT22;17168;49.164;9.060;2023-04-19T14:20:36;19.80;66.90
30379;DHT22;17168;49.164;9.060;2023-04-19T14:23:08;19.60;66.50
30379;DHT22;17168;49.164;9.060;2023-04-19T14:25:40;19.40;65.80
30379;DHT22;17168;49.164;9.060;2023-04-19T14:28:12;19.20;64.80
30379;DHT22;17168;49.164;9.060;2023-04-19T14:30:44;19.00;63.90
30379;DHT22;17168;49.164;9.060;2023-04-19T14:33:16;18.70;63.20
30379;DHT22;17168;49.164;9.060;2023-04-19T14:35:51;18.60;63.10
30379;DHT22;17168;49.164;9.060;2023-04-19T14:38:23;18.70;62.70
30379;DHT22;17168;49.164;9.060;2023-04-19T14:40:55;18.80;62.50
30379;DHT22;17168;49.164;9.060;2023-04-19T14:43:27;19.10;62.30
30379;DHT22;17168;49.164;9.060;2023-04-19T14:45:59;19.30;61.70
30379;DHT22;17168;49.164;9.060;2023-04-19T14:48:32;19.40;61.10
30379;DHT22;17168;49.164;9.060;2023-04-19T14:51:06;19.40;60.50
30379;DHT22;17168;49.164;9.060;2023-04-19T14:53:39;19.30;59.70
30379;DHT22;17168;49.164;9.060;2023-04-19T14:56:11;19.20;59.20
30379;DHT22;17168;49.164;9.060;2023-04-19T14:58:43;19.00;58.70
30379;DHT22;17168;49.164;9.060;2023-04-19T15:01:15;19.00;58.50
30379;DHT22;17168;49.164;9.060;2023-04-19T15:03:47;19.00;58.30
30379;DHT22;17168;49.164;9.060;2023-04-19T15:06:22;19.10;58.20
30379;DHT22;17168;49.164;9.060;2023-04-19T15:08:55;19.20;57.80
30379;DHT22;17168;49.164;9.060;2023-04-19T15:11:27;19.40;57.40
30379;DHT22;17168;49.164;9.060;2023-04-19T15:13:59;19.50;57.10
30379;DHT22;17168;49.164;9.060;2023-04-19T15:16:31;19.70;56.80
30379;DHT22;17168;49.164;9.060;2023-04-19T15:19:04;19.90;56.70
30379;DHT22;17168;49.164;9.060;2023-04-19T15:21:41;20.00;56.40
30379;DHT22;17168;49.164;9.060;2023-04-19T15:24:13;20.20;55.90
30379;DHT22;17168;49.164;9.060;2023-04-19T15:26:45;20.40;55.40
30379;DHT22;17168;49.164;9.060;2023-04-19T15:29:17;20.50;55.00
30379;DHT22;17168;49.164;9.060;2023-04-19T15:31:49;20.60;54.50
30379;DHT22;17168;49.164;9.060;2023-04-19T15:34:22;20.70;53.80
30379;DHT22;17168;49.164;9.060;2023-04-19T15:36:58;20.80;53.30
30379;DHT22;17168;49.164;9.060;2023-04-19T15:39:32;20.80;52.70
30379;DHT22;17168;49.164;9.060;2023-04-19T15:42:04;20.80;52.20
30379;DHT22;17168;49.164;9.060;2023-04-19T15:44:36;20.80;51.70
30379;DHT22;17168;49.164;9.060;2023-04-19T15:47:08;20.70;51.30
30379;DHT22;17168;49.164;9.060;2023-04-19T15:49:41;20.60;50.80
30379;DHT22;17168;49.164;9.060;2023-04-19T15:52:15;20.50;50.50
30379;DHT22;17168;49.164;9.060;2023-04-19T15:54:48;20.40;50.00
30379;DHT22;17168;49.164;9.060;2023-04-19T15:57:21;20.20;50.30
30379;DHT22;17168;49.164;9.060;2023-04-19T15:59:53;20.00;49.30
30379;DHT22;17168;49.164;9.060;2023-04-19T16:02:26;19.80;48.80
30379;DHT22;17168;49.164;9.060;2023-04-19T16:04:58;19.60;48.50
30379;DHT22;17168;49.164;9.060;2023-04-19T16:07:33;19.40;48.20
30379;DHT22;17168;49.164;9.060;2023-04-19T16:10:06;19.10;47.80
30379;DHT22;17168;49.164;9.060;2023-04-19T16:12:39;18.90;47.40
30379;DHT22;17168;49.164;9.060;2023-04-19T16:15:11;18.70;47.20